sensor_id;sensor_type;location;lat;lon;timestamp;pressure;altitude;pressure_sealevel;temperature;humidity
45541;BME280;31265;49.680;8.608;2023-08-31T00:00:25;99930.28;;;12.75;100.00
45541;BME280;31265;49.680;8.608;2023-08-31T00:02:57;99938.47;;;12.73;100.00
45541;BME280;31265;49.680;8.608;2023-08-31T00:05:25;99938.34;;;12.71;100.00
45541;BME280;31265;49.680;8.608;2023-08-31T00:07:55;99935.13;;;12.75;100.00
45541;BME280;31265;49.680;8.608;2023-08-31T00:10:26;99938.63;;;12.75;100.00
45541;BME280;31265;49.680;8.608;2023-08-31T00:12:56;99936.00;;;12.77;100.00
45541;BME280;31265;49.680;8.608;2023-08-31T00:15:24;99940.53;;;12.82;100.00
45541;BME280;31265;49.680;8.608;2023-08-31T00:17:52;99936.44;;;12.83;100.00
45541;BME280;31265;49.680;8.608;2023-08-31T00:20:21;99931.75;;;12.86;100.00
45541;BME280;31265;49.680;8.608;2023-08-31T00:22:49;99935.25;;;12.86;100.00
45541;BME280;31265;49.680;8.608;2023-08-31T00:25:17;99939.66;;;12.89;100.00
45541;BME280;31265;49.680;8.608;2023-08-31T00:27:46;99933.34;;;12.89;100.00
45541;BME280;31265;49.680;8.608;2023-08-31T00:30:16;99937.16;;;12.94;100.00
45541;BME280;31265;49.680;8.608;2023-08-31T00:32:45;99940.66;;;12.94;100.00
45541;BME280;31265;49.680;8.608;2023-08-31T00:35:14;99942.13;;;12.95;100.00
45541;BME280;31265;49.680;8.608;2023-08-31T00:37:43;99945.06;;;12.97;100.00
45541;BME280;31265;49.680;8.608;2023-08-31T00:40:14;99937.28;;;12.96;100.00
45541;BME280;31265;49.680;8.608;2023-08-31T00:42:42;99934.63;;;12.98;100.00
45541;BME280;31265;49.680;8.608;2023-08-31T00:45:12;99940.06;;;12.96;100.00
45541;BME280;31265;49.680;8.608;2023-08-31T00:47:45;99941.69;;;12.99;100.00
45541;BME280;31265;49.680;8.608;2023-08-31T00:50:14;99938.91;;;12.99;100.00
45541;BME280;31265;49.680;8.608;2023-08-31T00:52:43;99941.09;;;13.00;100.00
45541;BME280;31265;49.680;8.608;2023-08-31T00:55:12;99950.91;;;13.01;100.00
45541;BME280;31265;49.680;8.608;2023-08-31T00:57:41;99946.06;;;13.02;100.00
45541;BME280;31265;49.680;8.608;2023-08-31T01:00:12;99951.66;;;13.02;100.00
45541;BME280;31265;49.680;8.608;2023-08-31T01:02:50;99948.72;;;13.00;100.00
45541;BME280;31265;49.680;8.608;2023-08-31T01:05:28;99952.97;;;13.01;100.00
45541;BME280;31265;49.680;8.608;2023-08-31T01:08:07;99948.72;;;13.00;100.00
45541;BME280;31265;49.680;8.608;2023-08-31T01:10:43;99954.13;;;12.98;100.00
45541;BME280;31265;49.680;8.608;2023-08-31T01:13:20;99958.41;;;12.99;100.00
45541;BME280;31265;49.680;8.608;2023-08-31T01:15:53;99964.69;;;12.99;100.00
45541;BME280;31265;49.680;8.608;2023-08-31T01:18:25;99957.06;;;13.00;100.00
45541;BME280;31265;49.680;8.608;2023-08-31T01:21:02;99962.50;;;12.98;100.00
45541;BME280;31265;49.680;8.608;2023-08-31T01:23:53;99965.28;;;12.98;100.00
45541;BME280;31265;49.680;8.608;2023-08-31T01:26:23;99958.09;;;12.95;100.00
45541;BME280;31265;49.680;8.608;2023-08-31T01:28:52;99963.81;;;12.97;100.00
45541;BME280;31265;49.680;8.608;2023-08-31T01:31:21;99958.09;;;12.95;100.00
45541;BME280;31265;49.680;8.608;2023-08-31T01:33:49;99958.41;;;12.99;100.00
45541;BME280;31265;49.680;8.608;2023-08-31T01:36:23;99964.69;;;12.99;100.00
45541;BME280;31265;49.680;8.608;2023-08-31T01:38:58;99969.38;;;13.06;100.00
45541;BME280;31265;49.680;8.608;2023-08-31T01:41:32;99966.00;;;13.08;100.00
45541;BME280;31265;49.680;8.608;2023-08-31T01:44:03;99966.00;;;13.08;100.00
45541;BME280;31265;49.680;8.608;2023-08-31T01:46:33;99961.03;;;13.06;100.00
45541;BME280;31265;49.680;8.608;2023-08-31T01:49:04;99964.53;;;13.07;100.00
45541;BME280;31265;49.680;8.608;2023-08-31T01:51:33;99964.25;;;13.03;100.00
45541;BME280;31265;49.680;8.608;2023-08-31T01:54:06;99968.06;;;12.98;100.00
45541;BME280;31265;49.680;8.608;2023-08-31T01:56:34;99965.28;;;12.98;100.00
45541;BME280;31265;49.680;8.608;2023-08-31T01:59:07;99970.25;;;12.99;100.00
45541;BME280;31265;49.680;8.608;2023-08-31T02:01:35;99981.97;;;12.98;100.00
45541;BME280;31265;49.680;8.608;2023-08-31T02:04:05;99986.25;;;12.99;100.00
45541;BME280;31265;49.680;8.608;2023-08-31T02:06:33;99970.13;;;12.97;100.00
45541;BME280;31265;49.680;8.608;2023-08-31T02:09:02;99980.53;;;12.97;100.00
45541;BME280;31265;49.680;8.608;2023-08-31T02:11:31;99978.94;;;12.94;100.00
45541;BME280;31265;49.680;8.608;2023-08-31T02:14:05;99973.47;;;12.96;100.00
45541;BME280;31265;49.680;8.608;2023-08-31T02:16:34;99979.66;;;12.94;100.00
45541;BME280;31265;49.680;8.608;2023-08-31T02:19:03;99973.91;;;13.02;100.00
45541;BME280;31265;49.680;8.608;2023-08-31T02:21:31;99984.03;;;12.97;100.00
45541;BME280;31265;49.680;8.608;2023-08-31T02:24:01;99982.44;;;12.94;100.00
45541;BME280;31265;49.680;8.608;2023-08-31T02:26:35;99980.84;;;12.91;100.00
45541;BME280;31265;49.680;8.608;2023-08-31T02:29:04;99985.53;;;12.88;100.00
45541;BME280;31265;49.680;8.608;2023-08-31T02:31:32;99972.75;;;12.85;100.00
45541;BME280;31265;49.680;8.608;2023-08-31T02:34:01;99978.31;;;12.85;100.00
45541;BME280;31265;49.680;8.608;2023-08-31T02:36:29;99982.44;;;12.84;100.00
45541;BME280;31265;49.680;8.608;2023-08-31T02:38:58;99983.78;;;12.83;100.00
45541;BME280;31265;49.680;8.608;2023-08-31T02:41:26;99991.38;;;12.83;100.00
45541;BME280;31265;49.680;8.608;2023-08-31T02:43:56;99994.91;;;12.83;100.00
45541;BME280;31265;49.680;8.608;2023-08-31T02:46:25;99996.06;;;12.90;100.00
45541;BME280;31265;49.680;8.608;2023-08-31T02:48:53;99992.25;;;12.85;100.00
45541;BME280;31265;49.680;8.608;2023-08-31T02:51:22;99996.94;;;12.93;100.00
45541;BME280;31265;49.680;8.608;2023-08-31T02:53:50;99991.50;;;12.95;100.00
45541;BME280;31265;49.680;8.608;2023-08-31T02:56:20;99987.41;;;12.96;100.00
45541;BME280;31265;49.680;8.608;2023-08-31T02:58:48;99991.50;;;12.95;100.00
45541;BME280;31265;49.680;8.608;2023-08-31T03:01:19;99992.69;;;12.91;100.00
45541;BME280;31265;49.680;8.608;2023-08-31T03:03:50;99995.19;;;12.87;100.00
45541;BME280;31265;49.680;8.608;2023-08-31T03:06:20;100001.19;;;12.84;100.00
45541;BME280;31265;49.680;8.608;2023-08-31T03:08:48;100001.47;;;12.78;100.00
45541;BME280;31265;49.680;8.608;2023-08-31T03:11:16;100005.13;;;12.81;100.00
45541;BME280;31265;49.680;8.608;2023-08-31T03:13:44;100004.72;;;12.84;100.00
45541;BME280;31265;49.680;8.608;2023-08-31T03:16:13;100017.75;;;12.72;100.00
45541;BME280;31265;49.680;8.608;2023-08-31T03:18:43;100009.09;;;12.68;100.00
45541;BME280;31265;49.680;8.608;2023-08-31T03:21:12;100019.63;;;12.60;100.00
45541;BME280;31265;49.680;8.608;2023-08-31T03:23:40;100022.72;;;12.54;100.00
45541;BME280;31265;49.680;8.608;2023-08-31T03:26:09;100022.00;;;12.54;100.00
45541;BME280;31265;49.680;8.608;2023-08-31T03:28:38;100024.47;;;12.50;100.00
45541;BME280;31265;49.680;8.608;2023-08-31T03:31:08;100029.72;;;12.45;100.00
45541;BME280;31265;49.680;8.608;2023-08-31T03:33:37;100037.03;;;12.41;100.00
45541;BME280;31265;49.680;8.608;2023-08-31T03:36:07;100033.38;;;12.38;100.00
45541;BME280;31265;49.680;8.608;2023-08-31T03:38:35;100035.84;;;12.34;100.00
45541;BME280;31265;49.680;8.608;2023-08-31T03:41:05;100039.38;;;12.35;100.00
45541;BME280;31265;49.680;8.608;2023-08-31T03:43:33;100046.09;;;12.32;100.00
45541;BME280;31265;49.680;8.608;2023-08-31T03:46:02;100037.59;;;12.30;100.00
45541;BME280;31265;49.680;8.608;2023-08-31T03:48:30;100039.78;;;12.31;100.00
45541;BME280;31265;49.680;8.608;2023-08-31T03:50:59;100039.50;;;12.27;100.00
45541;BME280;31265;49.680;8.608;2023-08-31T03:53:29;100046.53;;;12.28;100.00
45541;BME280;31265;49.680;8.608;2023-08-31T03:55:58;100041.81;;;12.21;100.00
45541;BME280;31265;49.680;8.608;2023-08-31T03:58:31;100038.31;;;12.20;100.00
45541;BME280;31265;49.680;8.608;2023-08-31T04:00:59;100040.03;;;12.16;100.00
45541;BME280;31265;49.680;8.608;2023-08-31T04:03:31;100040.88;;;12.09;100.00
45541;BME280;31265;49.680;8.608;2023-08-31T04:05:59;100048.34;;;12.06;100.00
45541;BME280;31265;49.680;8.608;2023-08-31T04:08:29;100054.34;;;12.02;100.00
45541;BME280;31265;49.680;8.608;2023-08-31T04:10:57;100058.75;;;12.05;100.00
45541;BME280;31265;49.680;8.608;2023-08-31T04:13:27;100053.88;;;11.96;100.00
45541;BME280;31265;49.680;8.608;2023-08-31T04:15:55;100058.81;;;11.88;100.00
45541;BME280;31265;49.680;8.608;2023-08-31T04:18:24;100066.06;;;11.83;100.00
45541;BME280;31265;49.680;8.608;2023-08-31T04:20:54;100068.56;;;11.79;100.00
45541;BME280;31265;49.680;8.608;2023-08-31T04:23:28;100066.75;;;11.74;100.00
45541;BME280;31265;49.680;8.608;2023-08-31T04:25:57;100075.84;;;11.75;100.00
45541;BME280;31265;49.680;8.608;2023-08-31T04:28:26;100071.28;;;11.70;100.00
45541;BME280;31265;49.680;8.608;2023-08-31T04:30:55;100076.19;;;11.61;100.00
45541;BME280;31265;49.680;8.608;2023-08-31T04:33:23;100077.91;;;11.57;100.00
45541;BME280;31265;49.680;8.608;2023-08-31T04:35:51;100081.59;;;11.59;100.00
45541;BME280;31265;49.680;8.608;2023-08-31T04:38:20;100085.19;;;11.70;100.00
45541;BME280;31265;49.680;8.608;2023-08-31T04:40:50;100085.41;;;11.64;100.00
45541;BME280;31265;49.680;8.608;2023-08-31T04:43:18;100078.66;;;11.57;100.00
45541;BME280;31265;49.680;8.608;2023-08-31T04:45:47;100076.88;;;11.52;100.00
45541;BME280;31265;49.680;8.608;2023-08-31T04:48:15;100080.06;;;11.49;100.00
45541;BME280;31265;49.680;8.608;2023-08-31T04:50:44;100092.06;;;11.51;100.00
45541;BME280;31265;49.680;8.608;2023-08-31T04:53:12;100093.22;;;11.48;100.00
45541;BME280;31265;49.680;8.608;2023-08-31T04:55:41;100092.91;;;11.44;100.00
45541;BME280;31265;49.680;8.608;2023-08-31T04:58:11;100093.22;;;11.48;100.00
45541;BME280;31265;49.680;8.608;2023-08-31T05:00:39;100095.84;;;11.46;100.00
45541;BME280;31265;49.680;8.608;2023-08-31T05:03:08;100102.53;;;11.43;100.00
45541;BME280;31265;49.680;8.608;2023-08-31T05:05:37;100105.78;;;11.49;100.00
45541;BME280;31265;49.680;8.608;2023-08-31T05:08:06;100106.53;;;11.50;100.00
45541;BME280;31265;49.680;8.608;2023-08-31T05:10:34;100114.13;;;11.49;100.00
45541;BME280;31265;49.680;8.608;2023-08-31T05:13:04;100104.00;;;11.44;100.00
45541;BME280;31265;49.680;8.608;2023-08-31T05:15:34;100106.22;;;11.46;100.00
45541;BME280;31265;49.680;8.608;2023-08-31T05:18:03;100105.50;;;11.45;100.00
45541;BME280;31265;49.680;8.608;2023-08-31T05:20:32;100110.47;;;11.47;100.00
45541;BME280;31265;49.680;8.608;2023-08-31T05:23:00;100122.31;;;11.47;100.00
45541;BME280;31265;49.680;8.608;2023-08-31T05:25:28;100121.16;;;11.50;100.00
45541;BME280;31265;49.680;8.608;2023-08-31T05:27:57;100121.34;;;11.52;100.00
45541;BME280;31265;49.680;8.608;2023-08-31T05:30:25;100127.03;;;11.54;100.00
45541;BME280;31265;49.680;8.608;2023-08-31T05:32:56;100132.34;;;11.60;100.00
45541;BME280;31265;49.680;8.608;2023-08-31T05:35:25;100131.53;;;11.67;100.00
45541;BME280;31265;49.680;8.608;2023-08-31T05:37:53;100137.00;;;11.75;100.00
45541;BME280;31265;49.680;8.608;2023-08-31T05:40:22;100140.06;;;11.79;100.00
45541;BME280;31265;49.680;8.608;2023-08-31T05:42:51;100142.53;;;11.92;100.00
45541;BME280;31265;49.680;8.608;2023-08-31T05:45:19;100141.13;;;12.01;100.00
45541;BME280;31265;49.680;8.608;2023-08-31T05:47:47;100145.44;;;12.12;100.00
45541;BME280;31265;49.680;8.608;2023-08-31T05:50:17;100141.69;;;12.26;100.00
45541;BME280;31265;49.680;8.608;2023-08-31T05:52:47;100139.53;;;12.35;100.00
45541;BME280;31265;49.680;8.608;2023-08-31T05:55:15;100143.81;;;12.45;100.00
45541;BME280;31265;49.680;8.608;2023-08-31T05:57:44;100154.81;;;12.53;100.00
45541;BME280;31265;49.680;8.608;2023-08-31T06:00:13;100154.59;;;12.68;100.00
45541;BME280;31265;49.680;8.608;2023-08-31T06:02:42;100157.69;;;12.82;100.00
45541;BME280;31265;49.680;8.608;2023-08-31T06:05:11;100155.97;;;12.97;100.00
45541;BME280;31265;49.680;8.608;2023-08-31T06:07:44;100157.28;;;13.05;100.00
45541;BME280;31265;49.680;8.608;2023-08-31T06:10:13;100155.44;;;13.27;100.00
45541;BME280;31265;49.680;8.608;2023-08-31T06:12:42;100153.97;;;13.55;100.00
45541;BME280;31265;49.680;8.608;2023-08-31T06:15:11;100165.13;;;13.65;100.00
45541;BME280;31265;49.680;8.608;2023-08-31T06:17:40;100162.19;;;13.83;100.00
45541;BME280;31265;49.680;8.608;2023-08-31T06:20:10;100159.47;;;14.04;100.00
45541;BME280;31265;49.680;8.608;2023-08-31T06:22:38;100170.41;;;14.31;100.00
45541;BME280;31265;49.680;8.608;2023-08-31T06:25:08;100172.13;;;14.46;100.00
45541;BME280;31265;49.680;8.608;2023-08-31T06:27:39;100172.44;;;15.03;100.00
45541;BME280;31265;49.680;8.608;2023-08-31T06:30:08;100173.22;;;15.58;100.00
45541;BME280;31265;49.680;8.608;2023-08-31T06:32:39;100166.94;;;16.03;100.00
45541;BME280;31265;49.680;8.608;2023-08-31T06:35:08;100178.69;;;15.78;100.00
45541;BME280;31265;49.680;8.608;2023-08-31T06:37:36;100186.94;;;15.54;100.00
45541;BME280;31265;49.680;8.608;2023-08-31T06:40:05;100193.19;;;15.64;100.00
45541;BME280;31265;49.680;8.608;2023-08-31T06:42:39;100195.53;;;15.03;100.00
45541;BME280;31265;49.680;8.608;2023-08-31T06:45:08;100194.97;;;14.95;100.00
45541;BME280;31265;49.680;8.608;2023-08-31T06:47:37;100196.38;;;14.84;100.00
45541;BME280;31265;49.680;8.608;2023-08-31T06:50:05;100188.31;;;14.79;100.00
45541;BME280;31265;49.680;8.608;2023-08-31T06:52:36;100198.09;;;14.90;100.00
45541;BME280;31265;49.680;8.608;2023-08-31T06:55:07;100207.41;;;14.82;100.00
45541;BME280;31265;49.680;8.608;2023-08-31T06:57:39;100207.69;;;14.46;100.00
45541;BME280;31265;49.680;8.608;2023-08-31T07:00:11;100211.00;;;14.63;100.00
45541;BME280;31265;49.680;8.608;2023-08-31T07:02:40;100205.28;;;14.71;100.00
45541;BME280;31265;49.680;8.608;2023-08-31T07:05:10;100215.72;;;14.51;100.00
45541;BME280;31265;49.680;8.608;2023-08-31T07:07:39;100210.72;;;14.69;100.00
45541;BME280;31265;49.680;8.608;2023-08-31T07:10:07;100223.09;;;14.56;100.00
45541;BME280;31265;49.680;8.608;2023-08-31T07:12:36;100222.44;;;14.77;100.00
45541;BME280;31265;49.680;8.608;2023-08-31T07:15:06;100223.88;;;14.78;100.00
45541;BME280;31265;49.680;8.608;2023-08-31T07:17:35;100217.03;;;14.70;100.00
45541;BME280;31265;49.680;8.608;2023-08-31T07:20:04;100227.16;;;15.06;100.00
45541;BME280;31265;49.680;8.608;2023-08-31T07:22:34;100224.34;;;15.27;100.00
45541;BME280;31265;49.680;8.608;2023-08-31T07:25:05;100224.66;;;15.86;100.00
45541;BME280;31265;49.680;8.608;2023-08-31T07:27:34;100222.81;;;16.24;100.00
45541;BME280;31265;49.680;8.608;2023-08-31T07:30:03;100230.44;;;16.81;100.00
45541;BME280;31265;49.680;8.608;2023-08-31T07:32:33;100226.53;;;17.09;100.00
45541;BME280;31265;49.680;8.608;2023-08-31T07:35:03;100236.06;;;17.04;100.00
45541;BME280;31265;49.680;8.608;2023-08-31T07:37:33;100230.59;;;16.94;100.00
45541;BME280;31265;49.680;8.608;2023-08-31T07:40:02;100230.19;;;16.76;100.00
45541;BME280;31265;49.680;8.608;2023-08-31T07:42:35;100226.13;;;16.44;100.00
45541;BME280;31265;49.680;8.608;2023-08-31T07:45:04;100224.53;;;16.18;100.00
45541;BME280;31265;49.680;8.608;2023-08-31T07:47:35;100226.66;;;15.96;100.00
45541;BME280;31265;49.680;8.608;2023-08-31T07:50:03;100232.38;;;15.98;100.00
45541;BME280;31265;49.680;8.608;2023-08-31T07:52:32;100236.91;;;16.03;100.00
45541;BME280;31265;49.680;8.608;2023-08-31T07:55:01;100234.50;;;15.76;100.00
45541;BME280;31265;49.680;8.608;2023-08-31T07:57:30;100236.41;;;15.73;100.00
45541;BME280;31265;49.680;8.608;2023-08-31T07:59:59;100249.47;;;15.80;100.00
45541;BME280;31265;49.680;8.608;2023-08-31T08:02:40;100250.59;;;15.65;100.00
45541;BME280;31265;49.680;8.608;2023-08-31T08:05:08;100257.44;;;15.74;100.00
45541;BME280;31265;49.680;8.608;2023-08-31T08:07:37;100255.13;;;16.04;100.00
45541;BME280;31265;49.680;8.608;2023-08-31T08:10:07;100256.16;;;15.87;100.00
45541;BME280;31265;49.680;8.608;2023-08-31T08:12:39;100259.28;;;16.03;100.00
45541;BME280;31265;49.680;8.608;2023-08-31T08:15:07;100262.28;;;16.28;100.00
45541;BME280;31265;49.680;8.608;2023-08-31T08:17:36;100259.66;;;16.66;100.00
45541;BME280;31265;49.680;8.608;2023-08-31T08:20:07;100265.72;;;17.56;100.00
45541;BME280;31265;49.680;8.608;2023-08-31T08:22:36;100269.16;;;18.18;100.00
45541;BME280;31265;49.680;8.608;2023-08-31T08:25:07;100273.16;;;18.01;100.00
45541;BME280;31265;49.680;8.608;2023-08-31T08:27:36;100274.09;;;18.05;100.00
45541;BME280;31265;49.680;8.608;2023-08-31T08:30:06;100284.94;;;17.74;100.00
45541;BME280;31265;49.680;8.608;2023-08-31T08:32:35;100278.63;;;17.61;100.00
45541;BME280;31265;49.680;8.608;2023-08-31T08:35:06;100282.41;;;17.66;100.00
45541;BME280;31265;49.680;8.608;2023-08-31T08:37:37;100277.00;;;17.09;100.00
45541;BME280;31265;49.680;8.608;2023-08-31T08:40:06;100278.88;;;17.54;100.00
45541;BME280;31265;49.680;8.608;2023-08-31T08:42:40;100280.69;;;18.10;100.00
45541;BME280;31265;49.680;8.608;2023-08-31T08:45:13;100287.47;;;18.98;100.00
45541;BME280;31265;49.680;8.608;2023-08-31T08:47:44;100284.22;;;19.31;100.00
45541;BME280;31265;49.680;8.608;2023-08-31T08:50:15;100279.94;;;18.88;100.00
45541;BME280;31265;49.680;8.608;2023-08-31T08:52:44;100281.81;;;18.84;100.00
45541;BME280;31265;49.680;8.608;2023-08-31T08:55:13;100289.13;;;18.24;100.00
45541;BME280;31265;49.680;8.608;2023-08-31T08:57:43;100283.41;;;18.47;100.00
45541;BME280;31265;49.680;8.608;2023-08-31T09:00:12;100280.78;;;19.46;100.00
45541;BME280;31265;49.680;8.608;2023-08-31T09:02:41;100288.84;;;19.95;100.00
45541;BME280;31265;49.680;8.608;2023-08-31T09:05:09;100294.72;;;20.15;100.00
45541;BME280;31265;49.680;8.608;2023-08-31T09:08:02;100290.03;;;20.52;100.00
45541;BME280;31265;49.680;8.608;2023-08-31T09:10:36;100291.09;;;20.29;100.00
45541;BME280;31265;49.680;8.608;2023-08-31T09:13:08;100291.19;;;20.92;100.00
45541;BME280;31265;49.680;8.608;2023-08-31T09:15:39;100291.78;;;21.07;100.00
45541;BME280;31265;49.680;8.608;2023-08-31T09:18:14;100292.97;;;21.51;98.92
45541;BME280;31265;49.680;8.608;2023-08-31T09:20:45;100283.81;;;21.68;95.79
45541;BME280;31265;49.680;8.608;2023-08-31T09:23:16;100287.25;;;20.68;99.91
45541;BME280;31265;49.680;8.608;2023-08-31T09:25:46;100284.44;;;21.33;89.04
45541;BME280;31265;49.680;8.608;2023-08-31T09:28:18;100276.00;;;21.67;94.84
45541;BME280;31265;49.680;8.608;2023-08-31T09:30:48;100280.75;;;21.62;90.97
45541;BME280;31265;49.680;8.608;2023-08-31T09:33:18;100281.16;;;21.90;86.54
45541;BME280;31265;49.680;8.608;2023-08-31T09:35:48;100276.66;;;21.83;97.96
45541;BME280;31265;49.680;8.608;2023-08-31T09:38:20;100278.16;;;22.78;85.58
45541;BME280;31265;49.680;8.608;2023-08-31T09:40:48;100288.16;;;22.61;74.86
45541;BME280;31265;49.680;8.608;2023-08-31T09:43:20;100278.75;;;21.65;78.81
45541;BME280;31265;49.680;8.608;2023-08-31T09:45:52;100270.44;;;21.87;79.01
45541;BME280;31265;49.680;8.608;2023-08-31T09:48:22;100284.91;;;22.89;68.83
45541;BME280;31265;49.680;8.608;2023-08-31T09:50:52;100288.19;;;22.81;69.50
45541;BME280;31265;49.680;8.608;2023-08-31T09:53:24;100289.00;;;23.04;66.01
45541;BME280;31265;49.680;8.608;2023-08-31T09:55:56;100285.38;;;21.89;70.91
45541;BME280;31265;49.680;8.608;2023-08-31T09:58:25;100278.75;;;21.65;74.54
45541;BME280;31265;49.680;8.608;2023-08-31T10:00:54;100289.97;;;21.13;81.30
45541;BME280;31265;49.680;8.608;2023-08-31T10:03:24;100280.50;;;21.07;83.84
45541;BME280;31265;49.680;8.608;2023-08-31T10:05:57;100288.50;;;20.96;81.45
45541;BME280;31265;49.680;8.608;2023-08-31T10:08:30;100295.44;;;20.61;90.89
45541;BME280;31265;49.680;8.608;2023-08-31T10:11:00;100282.84;;;20.33;87.45
45541;BME280;31265;49.680;8.608;2023-08-31T10:13:31;100289.59;;;20.89;85.81
45541;BME280;31265;49.680;8.608;2023-08-31T10:16:04;100291.53;;;21.00;87.00
45541;BME280;31265;49.680;8.608;2023-08-31T10:18:34;100277.38;;;21.16;82.48
45541;BME280;31265;49.680;8.608;2023-08-31T10:21:04;100282.34;;;21.34;80.03
45541;BME280;31265;49.680;8.608;2023-08-31T10:23:35;100273.59;;;21.10;78.11
45541;BME280;31265;49.680;8.608;2023-08-31T10:26:05;100278.28;;;21.21;82.36
45541;BME280;31265;49.680;8.608;2023-08-31T10:28:42;100269.66;;;21.17;92.86
45541;BME280;31265;49.680;8.608;2023-08-31T10:31:16;100267.69;;;21.03;84.80
45541;BME280;31265;49.680;8.608;2023-08-31T10:33:46;100274.16;;;20.90;84.56
45541;BME280;31265;49.680;8.608;2023-08-31T10:36:15;100263.94;;;20.99;87.41
45541;BME280;31265;49.680;8.608;2023-08-31T10:38:47;100269.09;;;20.55;81.52
45541;BME280;31265;49.680;8.608;2023-08-31T10:41:21;100268.59;;;19.99;88.60
45541;BME280;31265;49.680;8.608;2023-08-31T10:43:52;100264.81;;;20.24;86.89
45541;BME280;31265;49.680;8.608;2023-08-31T10:46:26;100274.53;;;21.32;78.10
45541;BME280;31265;49.680;8.608;2023-08-31T10:48:56;100266.41;;;21.74;71.54
45541;BME280;31265;49.680;8.608;2023-08-31T10:51:27;100278.41;;;21.57;69.98
45541;BME280;31265;49.680;8.608;2023-08-31T10:54:08;100258.53;;;21.21;72.18
45541;BME280;31265;49.680;8.608;2023-08-31T10:56:54;100265.22;;;20.96;72.18
45541;BME280;31265;49.680;8.608;2023-08-31T10:59:25;100264.78;;;20.86;70.10
45541;BME280;31265;49.680;8.608;2023-08-31T11:01:58;100264.81;;;20.70;70.58
45541;BME280;31265;49.680;8.608;2023-08-31T11:04:29;100271.44;;;20.92;69.54
45541;BME280;31265;49.680;8.608;2023-08-31T11:07:12;100264.22;;;21.90;66.99
45541;BME280;31265;49.680;8.608;2023-08-31T11:09:43;100258.81;;;22.15;64.30
45541;BME280;31265;49.680;8.608;2023-08-31T11:12:12;100257.09;;;23.01;60.50
45541;BME280;31265;49.680;8.608;2023-08-31T11:14:41;100264.22;;;22.64;60.46
45541;BME280;31265;49.680;8.608;2023-08-31T11:17:10;100265.03;;;22.11;62.65
45541;BME280;31265;49.680;8.608;2023-08-31T11:19:38;100266.06;;;22.75;59.67
45541;BME280;31265;49.680;8.608;2023-08-31T11:22:07;100252.59;;;23.78;51.51
45541;BME280;31265;49.680;8.608;2023-08-31T11:24:37;100248.50;;;23.19;54.63
45541;BME280;31265;49.680;8.608;2023-08-31T11:27:11;100259.16;;;24.07;53.73
45541;BME280;31265;49.680;8.608;2023-08-31T11:29:42;100258.16;;;24.68;52.24
45541;BME280;31265;49.680;8.608;2023-08-31T11:32:11;100262.34;;;24.43;50.83
45541;BME280;31265;49.680;8.608;2023-08-31T11:34:40;100257.16;;;23.45;50.66
45541;BME280;31265;49.680;8.608;2023-08-31T11:37:11;100251.31;;;24.29;51.01
45541;BME280;31265;49.680;8.608;2023-08-31T11:39:43;100250.19;;;24.88;44.45
45541;BME280;31265;49.680;8.608;2023-08-31T11:42:21;100246.84;;;24.70;43.90
45541;BME280;31265;49.680;8.608;2023-08-31T11:44:52;100247.75;;;24.04;44.12
45541;BME280;31265;49.680;8.608;2023-08-31T11:47:23;100258.03;;;24.64;44.64
45541;BME280;31265;49.680;8.608;2023-08-31T11:49:52;100251.69;;;25.46;38.53
45541;BME280;31265;49.680;8.608;2023-08-31T11:52:21;100243.69;;;25.10;39.36
45541;BME280;31265;49.680;8.608;2023-08-31T11:54:53;100250.72;;;25.09;41.67
45541;BME280;31265;49.680;8.608;2023-08-31T11:57:27;100241.06;;;25.18;41.43
45541;BME280;31265;49.680;8.608;2023-08-31T11:59:56;100238.84;;;25.73;39.78
45541;BME280;31265;49.680;8.608;2023-08-31T12:02:25;100241.13;;;25.20;41.12
45541;BME280;31265;49.680;8.608;2023-08-31T12:04:56;100236.53;;;24.09;44.59
45541;BME280;31265;49.680;8.608;2023-08-31T12:07:25;100240.75;;;23.20;49.19
45541;BME280;31265;49.680;8.608;2023-08-31T12:09:53;100237.34;;;22.83;50.31
45541;BME280;31265;49.680;8.608;2023-08-31T12:12:25;100237.25;;;22.41;50.03
45541;BME280;31265;49.680;8.608;2023-08-31T12:14:58;100224.34;;;22.56;51.20
45541;BME280;31265;49.680;8.608;2023-08-31T12:17:29;100224.97;;;22.35;50.86
45541;BME280;31265;49.680;8.608;2023-08-31T12:20:02;100230.09;;;22.02;54.93
45541;BME280;31265;49.680;8.608;2023-08-31T12:22:33;100240.84;;;21.70;52.45
45541;BME280;31265;49.680;8.608;2023-08-31T12:25:02;100248.97;;;21.28;54.03
45541;BME280;31265;49.680;8.608;2023-08-31T12:27:33;100232.47;;;21.04;56.01
45541;BME280;31265;49.680;8.608;2023-08-31T12:30:01;100242.13;;;20.83;60.57
45541;BME280;31265;49.680;8.608;2023-08-31T12:32:30;100243.63;;;20.85;63.17
45541;BME280;31265;49.680;8.608;2023-08-31T12:34:59;100245.31;;;20.92;64.96
45541;BME280;31265;49.680;8.608;2023-08-31T12:37:27;100243.63;;;21.18;64.57
45541;BME280;31265;49.680;8.608;2023-08-31T12:39:55;100246.63;;;21.22;61.62
45541;BME280;31265;49.680;8.608;2023-08-31T12:42:25;100246.59;;;22.46;59.07
45541;BME280;31265;49.680;8.608;2023-08-31T12:44:55;100247.84;;;22.81;53.78
45541;BME280;31265;49.680;8.608;2023-08-31T12:47:24;100249.19;;;22.40;56.51
45541;BME280;31265;49.680;8.608;2023-08-31T12:49:53;100254.59;;;22.71;53.79
45541;BME280;31265;49.680;8.608;2023-08-31T12:52:21;100251.88;;;23.35;54.76
45541;BME280;31265;49.680;8.608;2023-08-31T12:54:51;100262.25;;;23.93;55.91
45541;BME280;31265;49.680;8.608;2023-08-31T12:57:21;100252.47;;;23.74;56.21
45541;BME280;31265;49.680;8.608;2023-08-31T12:59:50;100249.47;;;23.06;62.37